DAN weather

Danville Regional Airport
Danville, Virginia, United States

Public forecast

Using degrees Fahrenheit for public forecast. Weather courtesy of forecast.io.

Current aviation weather report (METAR) for Danville Regional Airport

Retrieved 2020/05/30 05:08 UTC (3 minutes ago):

KDAN 300508Z AUTO 23006KT 10SM OVC009 21/19 A3001 RMK AO2 CIG 008V013 T02110194

Aviation forecast (TAF) for Danville Regional Airport

Retrieved 2020-05-30 00:36 UTC (5 hours ago):

TAF KDAN 292334Z 3000/3024 20006KT P6SM VCSH SCT020 BKN050 FM300200 22005KT 6SM BR VCTS BKN020CB OVC250 FM300500 VRB03KT P6SM BKN080 FM301000 00000KT 5SM BR SCT045 BKN120 FM301400 32006KT P6SM SCT060